sensor_id;sensor_type;location;lat;lon;timestamp;temperature;humidity
27781;DHT22;15167;1.318;103.762;2023-08-12T00:00:05;28.10;41.80
27781;DHT22;15167;1.318;103.762;2023-08-12T00:02:41;28.20;35.10
27781;DHT22;15167;1.318;103.762;2023-08-12T00:05:08;28.20;29.90
27781;DHT22;15167;1.318;103.762;2023-08-12T00:07:37;28.20;18.70
27781;DHT22;15167;1.318;103.762;2023-08-12T00:10:04;28.30;6.90
27781;DHT22;15167;1.318;103.762;2023-08-12T00:12:35;28.30;3.70
27781;DHT22;15167;1.318;103.762;2023-08-12T00:15:03;28.40;1.00
27781;DHT22;15167;1.318;103.762;2023-08-12T00:17:30;28.40;1.00
27781;DHT22;15167;1.318;103.762;2023-08-12T00:19:57;28.50;1.00
27781;DHT22;15167;1.318;103.762;2023-08-12T00:22:24;28.60;1.00
27781;DHT22;15167;1.318;103.762;2023-08-12T00:24:51;28.60;1.00
27781;DHT22;15167;1.318;103.762;2023-08-12T00:27:18;28.70;1.00
27781;DHT22;15167;1.318;103.762;2023-08-12T00:29:45;28.80;1.00
27781;DHT22;15167;1.318;103.762;2023-08-12T00:32:11;28.80;1.00
27781;DHT22;15167;1.318;103.762;2023-08-12T00:34:38;28.80;1.00
27781;DHT22;15167;1.318;103.762;2023-08-12T00:37:07;28.90;1.00
27781;DHT22;15167;1.318;103.762;2023-08-12T00:39:33;28.90;99.90
27781;DHT22;15167;1.318;103.762;2023-08-12T00:42:00;29.00;1.00
27781;DHT22;15167;1.318;103.762;2023-08-12T00:44:27;29.00;99.90
27781;DHT22;15167;1.318;103.762;2023-08-12T00:46:53;29.10;99.90
27781;DHT22;15167;1.318;103.762;2023-08-12T00:49:22;29.10;99.90
27781;DHT22;15167;1.318;103.762;2023-08-12T00:51:50;29.20;99.90
27781;DHT22;15167;1.318;103.762;2023-08-12T00:54:17;29.10;99.90
27781;DHT22;15167;1.318;103.762;2023-08-12T00:56:44;29.20;99.90
27781;DHT22;15167;1.318;103.762;2023-08-12T00:59:12;29.20;99.90
27781;DHT22;15167;1.318;103.762;2023-08-12T01:01:40;29.20;99.90
27781;DHT22;15167;1.318;103.762;2023-08-12T01:04:10;29.20;99.90
27781;DHT22;15167;1.318;103.762;2023-08-12T01:06:37;29.20;99.90
27781;DHT22;15167;1.318;103.762;2023-08-12T01:09:05;29.10;99.90
27781;DHT22;15167;1.318;103.762;2023-08-12T01:17:18;29.20;99.90
27781;DHT22;15167;1.318;103.762;2023-08-12T01:19:47;29.30;99.90
27781;DHT22;15167;1.318;103.762;2023-08-12T01:22:14;29.40;99.90
27781;DHT22;15167;1.318;103.762;2023-08-12T01:24:44;29.50;99.90
27781;DHT22;15167;1.318;103.762;2023-08-12T01:27:12;29.60;99.90
27781;DHT22;15167;1.318;103.762;2023-08-12T01:29:48;29.70;99.90
27781;DHT22;15167;1.318;103.762;2023-08-12T01:32:44;29.80;99.90
27781;DHT22;15167;1.318;103.762;2023-08-12T01:35:18;29.80;99.90
27781;DHT22;15167;1.318;103.762;2023-08-12T01:37:46;29.80;99.90
27781;DHT22;15167;1.318;103.762;2023-08-12T01:40:15;29.70;99.90
27781;DHT22;15167;1.318;103.762;2023-08-12T01:42:43;29.70;99.90
27781;DHT22;15167;1.318;103.762;2023-08-12T01:45:11;29.70;99.90
27781;DHT22;15167;1.318;103.762;2023-08-12T01:47:38;29.80;99.90
27781;DHT22;15167;1.318;103.762;2023-08-12T01:50:05;29.80;99.90
27781;DHT22;15167;1.318;103.762;2023-08-12T01:52:32;29.90;99.90
27781;DHT22;15167;1.318;103.762;2023-08-12T01:54:58;29.90;99.90
27781;DHT22;15167;1.318;103.762;2023-08-12T01:57:25;29.90;99.90
27781;DHT22;15167;1.318;103.762;2023-08-12T01:59:51;29.90;58.00
27781;DHT22;15167;1.318;103.762;2023-08-12T02:02:18;29.90;56.10
27781;DHT22;15167;1.318;103.762;2023-08-12T02:04:45;30.00;22.00
27781;DHT22;15167;1.318;103.762;2023-08-12T02:07:12;30.00;1.00
27781;DHT22;15167;1.318;103.762;2023-08-12T02:09:38;30.10;1.00
27781;DHT22;15167;1.318;103.762;2023-08-12T02:12:05;30.20;1.00
27781;DHT22;15167;1.318;103.762;2023-08-12T02:14:32;30.30;1.00
27781;DHT22;15167;1.318;103.762;2023-08-12T02:16:58;30.30;1.00
27781;DHT22;15167;1.318;103.762;2023-08-12T02:19:25;30.30;1.00
27781;DHT22;15167;1.318;103.762;2023-08-12T02:21:51;30.40;1.00
27781;DHT22;15167;1.318;103.762;2023-08-12T02:24:18;30.50;1.00
27781;DHT22;15167;1.318;103.762;2023-08-12T02:26:44;30.60;1.00
27781;DHT22;15167;1.318;103.762;2023-08-12T02:29:11;30.60;1.00
27781;DHT22;15167;1.318;103.762;2023-08-12T02:31:38;30.70;1.00
27781;DHT22;15167;1.318;103.762;2023-08-12T02:34:04;30.70;1.00
27781;DHT22;15167;1.318;103.762;2023-08-12T02:36:31;30.70;1.00
27781;DHT22;15167;1.318;103.762;2023-08-12T02:38:57;30.80;1.00
27781;DHT22;15167;1.318;103.762;2023-08-12T02:41:24;30.90;1.00
27781;DHT22;15167;1.318;103.762;2023-08-12T02:43:50;31.00;99.90
27781;DHT22;15167;1.318;103.762;2023-08-12T02:46:17;31.00;99.90
27781;DHT22;15167;1.318;103.762;2023-08-12T02:48:45;30.90;99.90
27781;DHT22;15167;1.318;103.762;2023-08-12T02:51:13;31.00;99.90
27781;DHT22;15167;1.318;103.762;2023-08-12T02:53:40;31.20;99.90
27781;DHT22;15167;1.318;103.762;2023-08-12T02:56:06;31.40;99.90
27781;DHT22;15167;1.318;103.762;2023-08-12T02:58:33;31.40;99.90
27781;DHT22;15167;1.318;103.762;2023-08-12T03:01:00;31.50;99.90
27781;DHT22;15167;1.318;103.762;2023-08-12T03:03:26;31.60;99.90
27781;DHT22;15167;1.318;103.762;2023-08-12T03:05:53;31.60;99.90
27781;DHT22;15167;1.318;103.762;2023-08-12T03:08:19;31.60;99.90
27781;DHT22;15167;1.318;103.762;2023-08-12T03:10:46;31.70;99.90
27781;DHT22;15167;1.318;103.762;2023-08-12T03:13:12;31.80;99.90
27781;DHT22;15167;1.318;103.762;2023-08-12T03:15:39;31.70;99.90
27781;DHT22;15167;1.318;103.762;2023-08-12T03:18:06;31.70;99.90
27781;DHT22;15167;1.318;103.762;2023-08-12T03:20:32;31.80;99.90
27781;DHT22;15167;1.318;103.762;2023-08-12T03:22:59;31.80;99.90
27781;DHT22;15167;1.318;103.762;2023-08-12T03:25:26;31.80;99.90
27781;DHT22;15167;1.318;103.762;2023-08-12T03:27:52;31.90;99.90
27781;DHT22;15167;1.318;103.762;2023-08-12T03:30:19;32.10;99.90
27781;DHT22;15167;1.318;103.762;2023-08-12T03:32:46;32.20;99.90
27781;DHT22;15167;1.318;103.762;2023-08-12T03:35:12;32.20;99.90
27781;DHT22;15167;1.318;103.762;2023-08-12T03:37:39;32.30;99.90
27781;DHT22;15167;1.318;103.762;2023-08-12T03:40:06;32.20;99.90
27781;DHT22;15167;1.318;103.762;2023-08-12T03:42:33;32.10;99.90
27781;DHT22;15167;1.318;103.762;2023-08-12T03:44:59;32.30;99.90
27781;DHT22;15167;1.318;103.762;2023-08-12T03:47:26;32.40;99.90
27781;DHT22;15167;1.318;103.762;2023-08-12T03:49:52;32.50;99.90
27781;DHT22;15167;1.318;103.762;2023-08-12T03:52:19;32.30;99.90
27781;DHT22;15167;1.318;103.762;2023-08-12T03:54:46;32.20;99.90
27781;DHT22;15167;1.318;103.762;2023-08-12T03:57:12;32.20;99.90
27781;DHT22;15167;1.318;103.762;2023-08-12T03:59:39;32.00;99.90
27781;DHT22;15167;1.318;103.762;2023-08-12T04:02:05;31.80;99.90
27781;DHT22;15167;1.318;103.762;2023-08-12T04:04:32;31.80;99.90
27781;DHT22;15167;1.318;103.762;2023-08-12T04:06:59;31.70;99.90
27781;DHT22;15167;1.318;103.762;2023-08-12T04:09:26;31.60;99.90
27781;DHT22;15167;1.318;103.762;2023-08-12T04:11:52;31.50;99.90
27781;DHT22;15167;1.318;103.762;2023-08-12T04:14:19;31.30;99.90
27781;DHT22;15167;1.318;103.762;2023-08-12T04:16:45;31.20;99.90
27781;DHT22;15167;1.318;103.762;2023-08-12T04:19:12;31.20;99.90
27781;DHT22;15167;1.318;103.762;2023-08-12T04:21:38;31.20;99.90
27781;DHT22;15167;1.318;103.762;2023-08-12T04:24:05;31.10;99.90
27781;DHT22;15167;1.318;103.762;2023-08-12T04:26:32;31.10;99.90
27781;DHT22;15167;1.318;103.762;2023-08-12T04:28:59;31.10;99.90
27781;DHT22;15167;1.318;103.762;2023-08-12T04:31:25;31.20;99.90
27781;DHT22;15167;1.318;103.762;2023-08-12T04:33:52;31.10;99.90
27781;DHT22;15167;1.318;103.762;2023-08-12T04:36:19;31.20;99.90
27781;DHT22;15167;1.318;103.762;2023-08-12T04:38:45;31.20;99.90
27781;DHT22;15167;1.318;103.762;2023-08-12T04:41:12;31.10;99.90
27781;DHT22;15167;1.318;103.762;2023-08-12T04:43:39;31.20;99.90
27781;DHT22;15167;1.318;103.762;2023-08-12T04:46:05;31.20;99.90
27781;DHT22;15167;1.318;103.762;2023-08-12T04:48:32;31.30;99.90
27781;DHT22;15167;1.318;103.762;2023-08-12T04:50:58;31.20;99.90
27781;DHT22;15167;1.318;103.762;2023-08-12T04:53:29;31.20;99.90
27781;DHT22;15167;1.318;103.762;2023-08-12T04:55:56;31.30;99.90
27781;DHT22;15167;1.318;103.762;2023-08-12T04:58:22;31.40;99.90
27781;DHT22;15167;1.318;103.762;2023-08-12T05:00:50;31.60;99.90
27781;DHT22;15167;1.318;103.762;2023-08-12T05:03:19;31.90;99.90
27781;DHT22;15167;1.318;103.762;2023-08-12T05:05:52;32.20;99.90
27781;DHT22;15167;1.318;103.762;2023-08-12T05:08:19;32.30;99.90
27781;DHT22;15167;1.318;103.762;2023-08-12T05:10:49;32.40;99.90
27781;DHT22;15167;1.318;103.762;2023-08-12T05:13:16;32.50;99.90
27781;DHT22;15167;1.318;103.762;2023-08-12T05:15:46;32.70;99.90
27781;DHT22;15167;1.318;103.762;2023-08-12T05:18:13;32.90;99.90
27781;DHT22;15167;1.318;103.762;2023-08-12T05:20:41;33.20;99.90
27781;DHT22;15167;1.318;103.762;2023-08-12T05:23:08;33.50;99.90
27781;DHT22;15167;1.318;103.762;2023-08-12T05:25:35;33.80;99.90
27781;DHT22;15167;1.318;103.762;2023-08-12T05:28:02;34.00;99.90
27781;DHT22;15167;1.318;103.762;2023-08-12T05:30:28;34.10;99.90
27781;DHT22;15167;1.318;103.762;2023-08-12T05:32:55;34.10;99.90
27781;DHT22;15167;1.318;103.762;2023-08-12T05:35:22;34.20;98.90
27781;DHT22;15167;1.318;103.762;2023-08-12T05:37:48;34.40;93.10
27781;DHT22;15167;1.318;103.762;2023-08-12T05:40:15;34.40;91.00
27781;DHT22;15167;1.318;103.762;2023-08-12T05:42:41;34.50;86.50
27781;DHT22;15167;1.318;103.762;2023-08-12T05:45:08;34.50;78.60
27781;DHT22;15167;1.318;103.762;2023-08-12T05:47:35;34.50;81.90
27781;DHT22;15167;1.318;103.762;2023-08-12T05:50:01;34.70;77.70
27781;DHT22;15167;1.318;103.762;2023-08-12T05:52:28;34.70;78.80
27781;DHT22;15167;1.318;103.762;2023-08-12T05:54:54;34.90;81.40
27781;DHT22;15167;1.318;103.762;2023-08-12T05:57:21;35.00;73.50
27781;DHT22;15167;1.318;103.762;2023-08-12T05:59:47;35.00;70.90
27781;DHT22;15167;1.318;103.762;2023-08-12T06:02:14;35.10;74.20
27781;DHT22;15167;1.318;103.762;2023-08-12T06:04:41;35.00;76.30
27781;DHT22;15167;1.318;103.762;2023-08-12T06:07:07;34.70;76.50
27781;DHT22;15167;1.318;103.762;2023-08-12T06:09:34;34.30;84.40
27781;DHT22;15167;1.318;103.762;2023-08-12T06:12:00;34.10;87.50
27781;DHT22;15167;1.318;103.762;2023-08-12T06:14:27;33.90;92.30
27781;DHT22;15167;1.318;103.762;2023-08-12T06:16:54;33.60;94.70
27781;DHT22;15167;1.318;103.762;2023-08-12T06:19:20;33.40;95.30
27781;DHT22;15167;1.318;103.762;2023-08-12T06:21:47;33.50;95.50
27781;DHT22;15167;1.318;103.762;2023-08-12T06:24:13;33.50;95.30
27781;DHT22;15167;1.318;103.762;2023-08-12T06:26:40;33.50;95.20
27781;DHT22;15167;1.318;103.762;2023-08-12T06:29:06;33.40;95.20
27781;DHT22;15167;1.318;103.762;2023-08-12T06:31:33;33.30;99.40
27781;DHT22;15167;1.318;103.762;2023-08-12T06:34:00;33.30;99.90
27781;DHT22;15167;1.318;103.762;2023-08-12T06:36:27;33.50;99.90
27781;DHT22;15167;1.318;103.762;2023-08-12T06:38:53;33.60;99.90
27781;DHT22;15167;1.318;103.762;2023-08-12T06:41:20;33.60;99.90
27781;DHT22;15167;1.318;103.762;2023-08-12T06:43:46;33.80;98.30
27781;DHT22;15167;1.318;103.762;2023-08-12T06:46:13;34.00;98.60
27781;DHT22;15167;1.318;103.762;2023-08-12T06:48:39;34.10;96.70
27781;DHT22;15167;1.318;103.762;2023-08-12T06:51:06;34.10;97.90
27781;DHT22;15167;1.318;103.762;2023-08-12T06:53:39;34.40;93.50
27781;DHT22;15167;1.318;103.762;2023-08-12T06:56:05;34.40;92.80
27781;DHT22;15167;1.318;103.762;2023-08-12T06:58:32;34.20;92.60
27781;DHT22;15167;1.318;103.762;2023-08-12T07:00:59;34.10;97.50
27781;DHT22;15167;1.318;103.762;2023-08-12T07:03:26;34.30;92.80
27781;DHT22;15167;1.318;103.762;2023-08-12T07:05:53;34.70;88.60
27781;DHT22;15167;1.318;103.762;2023-08-12T07:08:21;35.10;73.70
27781;DHT22;15167;1.318;103.762;2023-08-12T07:10:47;35.40;68.20
27781;DHT22;15167;1.318;103.762;2023-08-12T07:13:14;35.60;64.00
27781;DHT22;15167;1.318;103.762;2023-08-12T07:15:40;35.90;56.60
27781;DHT22;15167;1.318;103.762;2023-08-12T07:18:07;35.90;58.60
27781;DHT22;15167;1.318;103.762;2023-08-12T07:20:33;36.00;54.50
27781;DHT22;15167;1.318;103.762;2023-08-12T07:23:00;36.30;46.70
27781;DHT22;15167;1.318;103.762;2023-08-12T07:25:26;36.00;45.10
27781;DHT22;15167;1.318;103.762;2023-08-12T07:27:53;35.90;46.80
27781;DHT22;15167;1.318;103.762;2023-08-12T07:30:20;35.80;44.20
27781;DHT22;15167;1.318;103.762;2023-08-12T07:32:46;35.90;45.70
27781;DHT22;15167;1.318;103.762;2023-08-12T07:35:13;35.90;46.70
27781;DHT22;15167;1.318;103.762;2023-08-12T07:37:39;35.90;44.10
27781;DHT22;15167;1.318;103.762;2023-08-12T07:40:06;36.00;44.90
27781;DHT22;15167;1.318;103.762;2023-08-12T07:42:34;35.80;46.40
27781;DHT22;15167;1.318;103.762;2023-08-12T07:45:01;35.40;50.30
27781;DHT22;15167;1.318;103.762;2023-08-12T07:47:27;35.10;54.10
27781;DHT22;15167;1.318;103.762;2023-08-12T07:49:54;34.90;59.90
27781;DHT22;15167;1.318;103.762;2023-08-12T07:52:21;34.50;61.50
27781;DHT22;15167;1.318;103.762;2023-08-12T07:54:47;34.30;71.00
27781;DHT22;15167;1.318;103.762;2023-08-12T07:57:14;33.80;67.80
27781;DHT22;15167;1.318;103.762;2023-08-12T07:59:40;33.40;80.70
27781;DHT22;15167;1.318;103.762;2023-08-12T08:02:07;33.00;90.80
27781;DHT22;15167;1.318;103.762;2023-08-12T08:04:34;32.90;93.60
27781;DHT22;15167;1.318;103.762;2023-08-12T08:07:00;32.70;95.20
27781;DHT22;15167;1.318;103.762;2023-08-12T08:09:27;32.60;99.90
27781;DHT22;15167;1.318;103.762;2023-08-12T08:11:54;32.50;99.90
27781;DHT22;15167;1.318;103.762;2023-08-12T08:14:20;32.40;99.90
27781;DHT22;15167;1.318;103.762;2023-08-12T08:16:47;32.40;99.90
27781;DHT22;15167;1.318;103.762;2023-08-12T08:19:13;32.30;99.90
27781;DHT22;15167;1.318;103.762;2023-08-12T08:21:40;32.30;99.90
27781;DHT22;15167;1.318;103.762;2023-08-12T08:24:07;32.40;99.90
27781;DHT22;15167;1.318;103.762;2023-08-12T08:26:34;32.40;99.90
27781;DHT22;15167;1.318;103.762;2023-08-12T08:29:00;32.30;99.90
27781;DHT22;15167;1.318;103.762;2023-08-12T08:31:27;32.30;99.90
27781;DHT22;15167;1.318;103.762;2023-08-12T08:33:54;32.50;99.90
27781;DHT22;15167;1.318;103.762;2023-08-12T08:36:20;32.50;99.90
27781;DHT22;15167;1.318;103.762;2023-08-12T08:38:47;32.40;99.90
27781;DHT22;15167;1.318;103.762;2023-08-12T08:41:14;32.50;99.90
27781;DHT22;15167;1.318;103.762;2023-08-12T08:43:42;32.50;99.90
27781;DHT22;15167;1.318;103.762;2023-08-12T08:46:15;32.60;99.90
27781;DHT22;15167;1.318;103.762;2023-08-12T08:48:45;32.60;99.90
27781;DHT22;15167;1.318;103.762;2023-08-12T08:51:13;32.70;99.90
27781;DHT22;15167;1.318;103.762;2023-08-12T08:53:40;32.80;99.90
27781;DHT22;15167;1.318;103.762;2023-08-12T08:56:08;32.80;99.90
27781;DHT22;15167;1.318;103.762;2023-08-12T08:58:38;32.80;99.90
27781;DHT22;15167;1.318;103.762;2023-08-12T09:01:08;32.80;99.90
27781;DHT22;15167;1.318;103.762;2023-08-12T09:03:37;32.60;99.90
27781;DHT22;15167;1.318;103.762;2023-08-12T09:06:04;32.50;99.90
27781;DHT22;15167;1.318;103.762;2023-08-12T09:08:34;32.50;99.90
27781;DHT22;15167;1.318;103.762;2023-08-12T09:11:03;32.50;99.90
27781;DHT22;15167;1.318;103.762;2023-08-12T09:13:30;32.50;99.90
27781;DHT22;15167;1.318;103.762;2023-08-12T09:15:56;32.50;99.90
27781;DHT22;15167;1.318;103.762;2023-08-12T09:18:23;32.50;99.90
27781;DHT22;15167;1.318;103.762;2023-08-12T09:20:51;32.50;99.90
27781;DHT22;15167;1.318;103.762;2023-08-12T09:23:17;32.40;99.90
27781;DHT22;15167;1.318;103.762;2023-08-12T09:25:44;32.30;99.90
27781;DHT22;15167;1.318;103.762;2023-08-12T09:28:11;32.10;99.90
27781;DHT22;15167;1.318;103.762;2023-08-12T09:30:39;32.10;99.90
27781;DHT22;15167;1.318;103.762;2023-08-12T09:33:07;31.90;99.90
27781;DHT22;15167;1.318;103.762;2023-08-12T09:35:39;31.80;99.90
27781;DHT22;15167;1.318;103.762;2023-08-12T09:38:12;31.80;99.90
27781;DHT22;15167;1.318;103.762;2023-08-12T09:40:40;31.80;99.90
27781;DHT22;15167;1.318;103.762;2023-08-12T09:43:06;31.60;99.90
27781;DHT22;15167;1.318;103.762;2023-08-12T09:45:34;31.60;99.90
27781;DHT22;15167;1.318;103.762;2023-08-12T09:48:01;31.50;99.90
27781;DHT22;15167;1.318;103.762;2023-08-12T09:50:28;31.50;99.90
27781;DHT22;15167;1.318;103.762;2023-08-12T09:52:55;31.30;99.90
27781;DHT22;15167;1.318;103.762;2023-08-12T09:55:25;31.30;99.90
27781;DHT22;15167;1.318;103.762;2023-08-12T09:57:54;31.30;99.90
27781;DHT22;15167;1.318;103.762;2023-08-12T10:00:22;31.20;99.90
27781;DHT22;15167;1.318;103.762;2023-08-12T10:02:51;31.20;99.90
27781;DHT22;15167;1.318;103.762;2023-08-12T10:05:28;31.20;99.90
27781;DHT22;15167;1.318;103.762;2023-08-12T10:07:56;31.30;99.90
27781;DHT22;15167;1.318;103.762;2023-08-12T10:10:23;31.30;99.90
27781;DHT22;15167;1.318;103.762;2023-08-12T10:12:50;31.40;99.90
27781;DHT22;15167;1.318;103.762;2023-08-12T10:15:17;31.50;99.90
27781;DHT22;15167;1.318;103.762;2023-08-12T10:17:45;31.60;99.90
27781;DHT22;15167;1.318;103.762;2023-08-12T10:20:20;31.70;99.90
27781;DHT22;15167;1.318;103.762;2023-08-12T10:22:49;32.00;99.90
27781;DHT22;15167;1.318;103.762;2023-08-12T10:25:18;32.10;99.90
27781;DHT22;15167;1.318;103.762;2023-08-12T10:27:48;32.10;99.90
27781;DHT22;15167;1.318;103.762;2023-08-12T10:30:15;32.20;99.90
27781;DHT22;15167;1.318;103.762;2023-08-12T10:32:42;32.30;99.90
27781;DHT22;15167;1.318;103.762;2023-08-12T10:35:09;32.30;99.90
27781;DHT22;15167;1.318;103.762;2023-08-12T10:37:36;32.30;99.90
27781;DHT22;15167;1.318;103.762;2023-08-12T10:40:04;32.10;99.90
27781;DHT22;15167;1.318;103.762;2023-08-12T10:42:48;32.00;99.90
27781;DHT22;15167;1.318;103.762;2023-08-12T10:45:17;31.80;99.90
27781;DHT22;15167;1.318;103.762;2023-08-12T10:47:53;31.60;99.90
27781;DHT22;15167;1.318;103.762;2023-08-12T10:50:35;31.30;99.90
27781;DHT22;15167;1.318;103.762;2023-08-12T10:55:53;31.20;99.90
27781;DHT22;15167;1.318;103.762;2023-08-12T10:58:48;31.10;99.90
27781;DHT22;15167;1.318;103.762;2023-08-12T11:01:17;30.90;99.90
27781;DHT22;15167;1.318;103.762;2023-08-12T11:03:45;30.90;99.90
27781;DHT22;15167;1.318;103.762;2023-08-12T11:06:11;30.80;1.00
27781;DHT22;15167;1.318;103.762;2023-08-12T11:08:51;30.70;1.00
27781;DHT22;15167;1.318;103.762;2023-08-12T11:11:23;30.70;1.00
27781;DHT22;15167;1.318;103.762;2023-08-12T11:13:59;30.70;1.00
27781;DHT22;15167;1.318;103.762;2023-08-12T11:16:35;30.50;1.00
27781;DHT22;15167;1.318;103.762;2023-08-12T11:19:03;30.50;1.00
27781;DHT22;15167;1.318;103.762;2023-08-12T11:21:30;30.40;1.00
27781;DHT22;15167;1.318;103.762;2023-08-12T11:23:56;30.40;1.00
27781;DHT22;15167;1.318;103.762;2023-08-12T11:26:24;30.30;1.00
27781;DHT22;15167;1.318;103.762;2023-08-12T11:28:50;30.30;1.00
27781;DHT22;15167;1.318;103.762;2023-08-12T11:31:17;30.30;1.00
27781;DHT22;15167;1.318;103.762;2023-08-12T11:33:44;30.30;1.00
27781;DHT22;15167;1.318;103.762;2023-08-12T11:36:11;30.20;1.00
27781;DHT22;15167;1.318;103.762;2023-08-12T11:38:38;30.30;1.00
27781;DHT22;15167;1.318;103.762;2023-08-12T11:41:04;30.20;1.00
27781;DHT22;15167;1.318;103.762;2023-08-12T11:43:34;30.20;1.00
27781;DHT22;15167;1.318;103.762;2023-08-12T11:46:01;30.20;1.00
27781;DHT22;15167;1.318;103.762;2023-08-12T11:48:28;30.20;1.00
27781;DHT22;15167;1.318;103.762;2023-08-12T11:50:55;30.20;1.00
27781;DHT22;15167;1.318;103.762;2023-08-12T11:53:22;30.10;13.70
27781;DHT22;15167;1.318;103.762;2023-08-12T11:55:49;30.10;40.80
27781;DHT22;15167;1.318;103.762;2023-08-12T11:58:15;30.10;73.30
27781;DHT22;15167;1.318;103.762;2023-08-12T12:00:49;30.00;97.40
27781;DHT22;15167;1.318;103.762;2023-08-12T12:03:17;30.00;99.90
27781;DHT22;15167;1.318;103.762;2023-08-12T12:05:46;30.00;99.90
27781;DHT22;15167;1.318;103.762;2023-08-12T12:08:14;30.00;99.90
27781;DHT22;15167;1.318;103.762;2023-08-12T12:10:40;29.90;99.90
27781;DHT22;15167;1.318;103.762;2023-08-12T12:13:07;29.80;99.90
27781;DHT22;15167;1.318;103.762;2023-08-12T12:15:41;29.80;99.90
27781;DHT22;15167;1.318;103.762;2023-08-12T12:18:12;29.80;99.90
27781;DHT22;15167;1.318;103.762;2023-08-12T12:20:58;29.90;99.90
27781;DHT22;15167;1.318;103.762;2023-08-12T12:23:31;29.90;99.90
27781;DHT22;15167;1.318;103.762;2023-08-12T12:26:02;29.80;99.90
27781;DHT22;15167;1.318;103.762;2023-08-12T12:28:30;29.80;99.90
27781;DHT22;15167;1.318;103.762;2023-08-12T12:30:56;29.80;99.90
27781;DHT22;15167;1.318;103.762;2023-08-12T12:33:23;29.90;99.90
27781;DHT22;15167;1.318;103.762;2023-08-12T12:35:49;29.90;99.90
27781;DHT22;15167;1.318;103.762;2023-08-12T12:38:16;29.80;99.90
27781;DHT22;15167;1.318;103.762;2023-08-12T12:40:42;29.80;99.90
27781;DHT22;15167;1.318;103.762;2023-08-12T12:43:09;29.70;99.90
27781;DHT22;15167;1.318;103.762;2023-08-12T12:45:36;29.70;99.90
27781;DHT22;15167;1.318;103.762;2023-08-12T12:48:02;29.70;99.90
27781;DHT22;15167;1.318;103.762;2023-08-12T12:50:29;29.70;99.90
27781;DHT22;15167;1.318;103.762;2023-08-12T12:52:56;29.60;99.90
27781;DHT22;15167;1.318;103.762;2023-08-12T12:55:22;29.60;99.90
27781;DHT22;15167;1.318;103.762;2023-08-12T12:57:49;29.60;99.90
27781;DHT22;15167;1.318;103.762;2023-08-12T13:00:15;29.60;99.90
27781;DHT22;15167;1.318;103.762;2023-08-12T13:02:42;29.60;99.90
27781;DHT22;15167;1.318;103.762;2023-08-12T13:05:08;29.60;99.90
27781;DHT22;15167;1.318;103.762;2023-08-12T13:07:35;29.60;99.90
27781;DHT22;15167;1.318;103.762;2023-08-12T13:10:02;29.60;99.90
27781;DHT22;15167;1.318;103.762;2023-08-12T13:12:28;29.60;99.90
27781;DHT22;15167;1.318;103.762;2023-08-12T13:14:55;29.60;99.90
27781;DHT22;15167;1.318;103.762;2023-08-12T13:17:21;29.50;99.90
27781;DHT22;15167;1.318;103.762;2023-08-12T13:19:48;29.50;99.90
27781;DHT22;15167;1.318;103.762;2023-08-12T13:22:14;29.50;99.90
27781;DHT22;15167;1.318;103.762;2023-08-12T13:24:41;29.60;99.90
27781;DHT22;15167;1.318;103.762;2023-08-12T13:27:07;29.50;99.90
27781;DHT22;15167;1.318;103.762;2023-08-12T13:29:34;29.50;99.90
27781;DHT22;15167;1.318;103.762;2023-08-12T13:32:01;29.50;99.90
27781;DHT22;15167;1.318;103.762;2023-08-12T13:34:28;29.50;99.90
27781;DHT22;15167;1.318;103.762;2023-08-12T13:36:54;29.50;99.90
27781;DHT22;15167;1.318;103.762;2023-08-12T13:39:21;29.60;99.90
27781;DHT22;15167;1.318;103.762;2023-08-12T13:41:48;29.60;99.90
27781;DHT22;15167;1.318;103.762;2023-08-12T13:44:14;29.50;99.90
27781;DHT22;15167;1.318;103.762;2023-08-12T13:46:41;29.50;99.90
27781;DHT22;15167;1.318;103.762;2023-08-12T13:49:07;29.50;99.90
27781;DHT22;15167;1.318;103.762;2023-08-12T13:51:34;29.40;99.90
27781;DHT22;15167;1.318;103.762;2023-08-12T13:54:01;29.40;99.90
27781;DHT22;15167;1.318;103.762;2023-08-12T13:56:27;29.40;99.90
27781;DHT22;15167;1.318;103.762;2023-08-12T13:58:54;29.30;99.90
27781;DHT22;15167;1.318;103.762;2023-08-12T14:01:20;29.30;99.90
27781;DHT22;15167;1.318;103.762;2023-08-12T14:03:47;29.30;99.90
27781;DHT22;15167;1.318;103.762;2023-08-12T14:06:14;29.30;99.90
27781;DHT22;15167;1.318;103.762;2023-08-12T14:08:40;29.30;99.90
27781;DHT22;15167;1.318;103.762;2023-08-12T14:11:07;29.30;99.90
27781;DHT22;15167;1.318;103.762;2023-08-12T14:13:33;29.20;99.90
27781;DHT22;15167;1.318;103.762;2023-08-12T14:16:00;29.20;99.90
27781;DHT22;15167;1.318;103.762;2023-08-12T14:18:26;29.10;99.90
27781;DHT22;15167;1.318;103.762;2023-08-12T14:20:53;29.10;99.90
27781;DHT22;15167;1.318;103.762;2023-08-12T14:23:19;29.10;99.90
27781;DHT22;15167;1.318;103.762;2023-08-12T14:25:46;29.00;99.90
27781;DHT22;15167;1.318;103.762;2023-08-12T14:28:13;29.00;99.90
27781;DHT22;15167;1.318;103.762;2023-08-12T14:30:39;29.00;99.90
27781;DHT22;15167;1.318;103.762;2023-08-12T14:33:06;28.90;99.90
27781;DHT22;15167;1.318;103.762;2023-08-12T14:35:34;28.90;99.90
27781;DHT22;15167;1.318;103.762;2023-08-12T14:38:01;28.80;99.90
27781;DHT22;15167;1.318;103.762;2023-08-12T14:40:28;28.80;99.90
27781;DHT22;15167;1.318;103.762;2023-08-12T14:42:55;28.90;99.90
27781;DHT22;15167;1.318;103.762;2023-08-12T14:45:21;28.80;99.90
27781;DHT22;15167;1.318;103.762;2023-08-12T14:47:48;28.80;99.90
27781;DHT22;15167;1.318;103.762;2023-08-12T14:50:14;28.80;99.90
27781;DHT22;15167;1.318;103.762;2023-08-12T14:52:41;28.80;99.90
27781;DHT22;15167;1.318;103.762;2023-08-12T14:55:08;28.80;99.90
27781;DHT22;15167;1.318;103.762;2023-08-12T14:57:34;28.80;99.90
27781;DHT22;15167;1.318;103.762;2023-08-12T15:00:02;28.80;99.90
27781;DHT22;15167;1.318;103.762;2023-08-12T15:02:29;28.80;99.90
27781;DHT22;15167;1.318;103.762;2023-08-12T15:04:55;28.70;99.90
27781;DHT22;15167;1.318;103.762;2023-08-12T15:07:22;28.70;99.90
27781;DHT22;15167;1.318;103.762;2023-08-12T15:09:48;28.70;99.90
27781;DHT22;15167;1.318;103.762;2023-08-12T15:12:17;28.80;99.90
27781;DHT22;15167;1.318;103.762;2023-08-12T15:14:43;28.80;99.90
27781;DHT22;15167;1.318;103.762;2023-08-12T15:17:10;28.80;99.90
27781;DHT22;15167;1.318;103.762;2023-08-12T15:19:37;28.80;99.90
27781;DHT22;15167;1.318;103.762;2023-08-12T15:22:04;28.80;99.90
27781;DHT22;15167;1.318;103.762;2023-08-12T15:24:30;28.80;99.90
27781;DHT22;15167;1.318;103.762;2023-08-12T15:26:57;28.70;99.90